createdAt,value
2023-02-17T01:25:27.802Z,27.59
2023-02-17T01:26:27.885Z,27.58
2023-02-17T01:27:27.958Z,27.57
2023-02-17T01:28:28.039Z,27.57
2023-02-17T01:29:28.414Z,27.58
2023-02-17T01:30:28.232Z,27.56
2023-02-17T01:31:28.400Z,27.58
2023-02-17T01:32:28.368Z,27.59
2023-02-17T01:33:28.444Z,27.60
2023-02-17T01:34:28.539Z,27.57
2023-02-17T01:35:28.601Z,27.58
2023-02-17T01:36:28.679Z,27.59
2023-02-17T01:37:28.754Z,27.61
2023-02-17T01:38:28.840Z,27.59
2023-02-17T01:39:28.924Z,27.62
2023-02-17T01:40:28.991Z,27.59
2023-02-17T01:41:29.076Z,27.61
2023-02-17T01:42:29.144Z,27.63
2023-02-17T01:43:29.225Z,27.62
2023-02-17T01:44:29.296Z,27.63
2023-02-17T01:45:29.376Z,27.62
2023-02-17T01:46:29.461Z,27.61
2023-02-17T01:47:29.533Z,27.63
2023-02-17T01:48:29.609Z,27.66
2023-02-17T01:49:29.689Z,27.65
2023-02-17T01:50:29.767Z,27.66
2023-02-17T01:51:29.844Z,27.65
2023-02-17T01:52:29.926Z,27.66
2023-02-17T01:53:30.008Z,27.69
2023-02-17T01:54:30.085Z,27.66
2023-02-17T01:55:30.161Z,27.68
2023-02-17T01:56:30.245Z,27.68
2023-02-17T01:57:30.363Z,27.69
2023-02-17T01:58:30.409Z,27.66
2023-02-17T03:27:37.809Z,27.86
2023-02-17T03:28:37.893Z,27.88
2023-02-17T03:29:37.973Z,27.88
2023-02-17T03:30:38.055Z,27.87
2023-02-17T03:31:38.242Z,27.91
2023-02-17T03:32:38.212Z,27.90
2023-02-17T03:33:38.300Z,27.89
2023-02-17T03:34:38.456Z,27.89
2023-02-17T03:35:38.462Z,27.90
2023-02-17T03:36:38.533Z,27.89
2023-02-17T03:37:38.628Z,27.90
2023-02-17T03:38:38.706Z,27.92
2023-02-17T03:39:38.776Z,27.91
2023-02-17T03:40:38.862Z,27.91
2023-02-17T03:41:38.950Z,27.93
2023-02-17T03:42:39.043Z,27.89
2023-02-17T03:43:39.109Z,27.93
2023-02-17T03:44:39.195Z,27.93
2023-02-17T03:46:39.371Z,27.93
2023-02-17T03:47:39.444Z,27.92
2023-02-17T03:48:39.527Z,27.93
2023-02-17T03:49:39.617Z,27.93
2023-02-17T03:50:39.698Z,27.94
2023-02-17T03:51:39.779Z,27.96
2023-02-17T03:52:40.679Z,27.95
2023-02-17T03:53:39.955Z,27.96
2023-02-17T03:54:40.036Z,27.97
2023-02-17T03:55:40.108Z,27.95
2023-02-17T03:56:40.217Z,27.95
2023-02-17T03:57:40.266Z,27.97
2023-02-17T03:58:40.353Z,27.96
2023-02-17T03:59:40.432Z,27.97
2023-02-17T04:00:40.517Z,27.97
2023-02-17T04:01:40.624Z,27.98
2023-02-17T04:02:42.910Z,27.93
2023-02-17T04:03:40.691Z,27.98
2023-02-17T04:04:40.693Z,27.94
2023-02-17T04:05:40.711Z,27.98
2023-02-17T07:53:57.809Z,28.21
2023-02-17T07:54:57.880Z,28.20
2023-02-17T07:55:57.950Z,28.21
2023-02-17T07:56:58.046Z,28.21
2023-02-17T07:57:58.126Z,28.18
2023-02-17T07:58:58.199Z,28.19
2023-02-17T07:59:58.288Z,28.19
2023-02-17T08:00:58.335Z,28.20
2023-02-17T08:01:58.427Z,28.20
2023-02-17T08:02:58.506Z,28.17
2023-02-17T08:03:58.630Z,28.19
2023-02-17T08:04:58.633Z,28.19
2023-02-17T08:05:58.717Z,28.24
2023-02-17T08:06:58.801Z,28.16
2023-02-17T08:07:58.883Z,28.11
2023-02-17T08:08:58.969Z,28.13
2023-02-17T08:09:59.049Z,28.15
2023-02-17T08:10:59.134Z,28.16
2023-02-17T08:11:59.215Z,28.14
2023-02-17T08:12:59.289Z,28.14
2023-02-17T08:13:59.385Z,28.15
2023-02-17T08:14:59.481Z,28.14
2023-02-17T08:15:59.551Z,28.15
2023-02-17T08:16:59.692Z,28.12
2023-02-17T08:17:59.713Z,28.13
2023-02-17T08:18:59.802Z,28.12
2023-02-17T08:20:05.910Z,28.14
2023-02-17T08:21:00.912Z,28.11
2023-02-17T08:21:59.919Z,28.13
2023-02-17T08:22:59.953Z,28.10
2023-02-17T08:23:59.963Z,28.11
2023-02-17T08:24:59.984Z,28.10
2023-02-17T08:25:59.998Z,28.10
2023-02-17T08:27:00.065Z,28.10
2023-02-17T08:28:00.043Z,28.10
2023-02-17T08:29:00.109Z,28.11
2023-02-17T08:30:00.212Z,28.08
2023-02-17T08:31:00.266Z,28.05
2023-02-17T08:32:00.457Z,28.07
2023-02-17T08:33:00.329Z,28.08
2023-02-17T08:34:00.401Z,28.10
2023-02-17T08:35:00.517Z,28.06
2023-02-17T08:36:00.585Z,28.06
2023-02-17T08:37:00.679Z,28.08
2023-02-17T08:38:00.721Z,28.06
2023-02-17T08:39:00.805Z,28.07
2023-02-17T08:40:00.871Z,28.03
2023-02-17T08:41:00.943Z,28.05
2023-02-17T08:42:01.030Z,28.06
2023-02-17T08:43:03.371Z,28.04
2023-02-17T08:44:01.227Z,28.05
2023-02-17T08:45:01.275Z,28.07
2023-02-17T08:46:01.359Z,28.05
2023-02-17T08:47:01.416Z,28.05
2023-02-17T08:48:01.518Z,28.05
2023-02-17T08:49:01.588Z,28.05
2023-02-17T08:50:01.659Z,28.04
2023-02-17T08:51:01.722Z,28.04
2023-02-17T08:52:01.816Z,28.04
2023-02-17T08:53:01.923Z,28.02
2023-02-17T08:54:01.962Z,28.02
2023-02-17T08:55:02.070Z,28.04
2023-02-17T08:56:02.090Z,28.04
2023-02-17T08:57:02.170Z,28.02
2023-02-17T08:58:02.284Z,28.03
2023-02-17T08:59:02.334Z,28.00
2023-02-17T09:00:04.216Z,28.01
2023-02-17T09:01:02.462Z,27.98
2023-02-17T09:02:02.471Z,27.99
2023-02-17T09:03:02.450Z,27.97
2023-02-17T09:04:02.449Z,28.00
2023-02-17T09:05:02.544Z,27.98
2023-02-17T09:06:02.488Z,27.99
2023-02-17T09:07:02.493Z,27.99
2023-02-17T09:08:02.506Z,27.99
2023-02-17T09:09:02.528Z,27.98
2023-02-17T09:10:02.525Z,28.00
2023-02-17T09:11:02.551Z,27.99
2023-02-17T09:12:02.599Z,28.00
2023-02-17T09:13:02.589Z,28.00
2023-02-17T09:14:02.661Z,28.01
2023-02-17T09:15:02.643Z,28.02
2023-02-17T09:16:02.746Z,28.03
2023-02-17T09:17:03.288Z,28.06
2023-02-17T09:18:02.706Z,28.04
2023-02-17T09:19:02.736Z,28.02
2023-02-17T09:20:02.781Z,28.00
2023-02-17T09:21:02.746Z,28.02
2023-02-17T09:22:02.762Z,28.04
2023-02-17T09:23:02.784Z,28.03
2023-02-17T09:24:02.785Z,28.04
2023-02-17T09:25:02.806Z,27.98
2023-02-17T09:26:02.884Z,28.02
2023-02-17T09:27:03.862Z,27.99
2023-02-17T09:28:02.854Z,28.02
2023-02-17T09:29:02.859Z,28.03
2023-02-17T09:30:02.989Z,28.01
2023-02-17T09:31:02.950Z,28.04
2023-02-17T09:32:02.989Z,28.04
2023-02-17T09:33:02.975Z,28.02
2023-02-17T09:34:03.017Z,28.02
2023-02-17T09:35:02.955Z,28.03
2023-02-17T09:36:03.017Z,28.03
2023-02-17T09:37:02.975Z,28.04
2023-02-17T09:38:02.986Z,28.03
2023-02-17T09:39:03.072Z,28.04
2023-02-17T09:40:03.040Z,28.04
2023-02-17T09:41:03.044Z,28.04
2023-02-17T09:42:03.115Z,28.03
2023-02-17T09:43:03.110Z,28.03
2023-02-17T09:44:03.121Z,28.04
2023-02-17T09:45:03.206Z,28.04
2023-02-17T09:46:03.350Z,28.03
2023-02-17T09:47:03.562Z,28.04
2023-02-17T09:48:03.387Z,28.05
2023-02-17T09:49:03.524Z,28.09
2023-02-17T09:50:03.497Z,28.02
2023-02-17T09:51:03.643Z,28.03
2023-02-17T09:52:03.646Z,28.02
2023-02-17T09:53:03.749Z,28.04
2023-02-17T09:54:03.772Z,28.01
2023-02-17T09:55:03.838Z,28.01
2023-02-17T10:00:04.232Z,28.02
2023-02-17T10:01:04.342Z,27.99
2023-02-17T11:07:07.807Z,27.71
2023-02-17T11:08:07.856Z,27.73
2023-02-17T11:09:07.867Z,27.73
2023-02-17T11:10:07.908Z,27.75
2023-02-17T11:11:07.934Z,27.75
2023-02-17T11:12:07.955Z,27.76
2023-02-17T11:13:08.019Z,27.72
2023-02-17T11:14:08.030Z,27.76
2023-02-17T11:15:08.068Z,27.76
2023-02-17T11:16:08.356Z,27.71
2023-02-17T11:17:08.106Z,27.74
2023-02-17T11:18:08.145Z,27.71
2023-02-17T11:19:08.166Z,27.68
2023-02-17T11:20:08.200Z,27.66
2023-02-17T11:21:08.219Z,27.65
2023-02-17T11:22:08.257Z,27.64
2023-02-17T11:23:08.267Z,27.62
2023-02-17T11:24:08.295Z,27.62
2023-02-17T11:25:08.327Z,27.64
2023-02-17T11:26:08.650Z,27.63
2023-02-17T11:27:08.382Z,27.61
2023-02-17T11:28:08.407Z,27.60
2023-02-17T11:29:08.449Z,27.60
2023-02-17T11:30:08.523Z,27.60
2023-02-17T11:31:08.555Z,27.56
2023-02-17T11:32:08.565Z,27.59
2023-02-17T11:33:08.534Z,27.56
2023-02-17T11:34:08.563Z,27.54
2023-02-17T11:35:08.585Z,27.55
2023-02-17T11:36:08.917Z,27.53
2023-02-17T11:37:08.626Z,27.53
2023-02-17T11:38:08.654Z,27.51
2023-02-17T11:39:08.679Z,27.51
2023-02-17T11:40:08.699Z,27.51
2023-02-17T11:41:08.731Z,27.50
2023-02-17T11:42:08.765Z,27.50
2023-02-17T11:43:08.799Z,27.51
2023-02-17T12:08:09.565Z,27.54
2023-02-17T12:09:09.588Z,27.54
2023-02-17T12:10:09.617Z,27.51
2023-02-17T12:11:09.641Z,27.53
2023-02-17T12:12:09.661Z,27.51
2023-02-17T12:13:09.684Z,27.51
2023-02-17T12:14:09.713Z,27.55
2023-02-17T12:15:09.734Z,27.53
2023-02-17T12:16:10.115Z,27.55
2023-02-17T12:17:09.778Z,27.53
2023-02-17T12:18:09.797Z,27.56
2023-02-17T12:19:09.820Z,27.53
2023-02-17T12:20:09.862Z,27.54
2023-02-17T12:21:09.866Z,27.54
2023-02-17T12:22:09.896Z,27.54
2023-02-17T12:23:09.910Z,27.55
2023-02-17T12:24:09.932Z,27.53
2023-02-17T12:25:10.182Z,27.53
2023-02-17T12:26:09.982Z,27.55
2023-02-17T12:27:10.006Z,27.53
2023-02-17T12:28:10.032Z,27.52
2023-02-17T12:29:10.056Z,27.53
2023-02-17T12:30:10.139Z,27.51
2023-02-17T12:31:11.425Z,27.52
2023-02-17T12:32:10.207Z,27.54
2023-02-17T12:33:10.146Z,27.52
2023-02-17T12:34:10.170Z,27.56
2023-02-17T12:35:10.192Z,27.58
2023-02-17T12:36:10.217Z,27.55
2023-02-17T12:37:10.228Z,27.59
2023-02-17T12:38:10.244Z,27.57
2023-02-17T12:39:10.272Z,27.57
2023-02-17T12:40:10.314Z,27.59
2023-02-17T12:41:10.362Z,27.58
2023-02-17T12:42:10.337Z,27.58
2023-02-17T12:43:10.352Z,27.57
2023-02-17T12:44:10.379Z,27.55
2023-02-17T12:45:10.398Z,27.57
2023-02-17T12:46:10.483Z,27.55
2023-02-17T12:47:10.446Z,27.57
2023-02-17T12:48:10.458Z,27.56
2023-02-17T12:49:10.468Z,27.59
2023-02-17T12:50:10.489Z,27.58
2023-02-17T12:51:10.507Z,27.59
2023-02-17T12:52:10.550Z,27.58
2023-02-17T12:53:10.582Z,27.58
2023-02-17T12:54:10.625Z,27.59
2023-02-17T12:55:10.660Z,27.56
2023-02-17T12:56:10.700Z,27.55
2023-02-17T12:57:10.751Z,27.56
2023-02-17T12:58:10.777Z,27.54
2023-02-17T12:59:10.811Z,27.56
2023-02-17T13:00:10.827Z,27.57
2023-02-17T13:01:10.994Z,27.56
2023-02-17T13:02:10.977Z,27.57
2023-02-17T13:03:10.929Z,27.57
2023-02-17T13:04:10.959Z,27.57
2023-02-17T13:05:10.977Z,27.55
2023-02-17T13:06:11.021Z,27.57
2023-02-17T13:07:11.042Z,27.58
2023-02-17T13:08:11.033Z,27.58
2023-02-17T13:09:11.048Z,27.56
2023-02-17T13:10:11.066Z,27.57
2023-02-17T13:11:11.087Z,27.57
2023-02-17T13:12:11.127Z,27.59
2023-02-17T13:13:11.129Z,27.59
2023-02-17T13:14:11.149Z,27.62
2023-02-17T13:15:11.173Z,27.62
2023-02-17T13:16:11.478Z,27.62
2023-02-17T13:17:11.205Z,27.62
2023-02-17T13:18:11.231Z,27.62
2023-02-17T13:19:11.247Z,27.63
2023-02-17T13:20:11.278Z,27.64
2023-02-17T13:21:11.875Z,27.61
2023-02-17T13:22:11.287Z,27.61
2023-02-17T13:23:11.315Z,27.62
2023-02-17T13:24:11.327Z,27.62
2023-02-17T13:25:11.336Z,27.61
2023-02-17T13:26:11.368Z,27.64
2023-02-17T13:27:11.377Z,27.65
2023-02-17T13:28:11.393Z,27.64
2023-02-17T13:29:11.484Z,27.66
2023-02-17T13:30:11.484Z,27.66
2023-02-17T13:31:11.582Z,27.65
2023-02-17T13:32:11.629Z,27.69
2023-02-17T13:33:11.485Z,27.67
2023-02-17T13:34:11.523Z,27.68
2023-02-17T13:35:11.517Z,27.68
2023-02-17T13:36:11.526Z,27.71
2023-02-17T13:37:11.538Z,27.71
2023-02-17T13:38:11.546Z,27.72
2023-02-17T13:39:11.572Z,27.71
2023-02-17T13:40:11.594Z,27.70
2023-02-17T13:41:11.602Z,27.72
2023-02-17T13:42:11.615Z,27.72
2023-02-17T13:43:11.642Z,27.74
2023-02-17T13:44:11.644Z,27.75
2023-02-17T13:45:11.669Z,27.75
2023-02-17T13:46:11.708Z,27.75
2023-02-17T17:26:17.824Z,28.22
2023-02-17T17:27:17.863Z,28.22
2023-02-17T17:28:17.886Z,28.22
2023-02-17T17:29:17.924Z,28.23
2023-02-17T17:30:17.998Z,28.25
2023-02-17T17:31:18.082Z,28.21
2023-02-17T17:32:18.205Z,28.22
2023-02-17T17:33:18.072Z,28.23
2023-02-17T17:34:18.107Z,28.22
2023-02-17T17:35:18.140Z,28.25
2023-02-17T17:36:18.182Z,28.24
2023-02-17T17:37:18.214Z,28.25
2023-02-17T17:38:18.269Z,28.23
2023-02-17T17:39:18.295Z,28.24
2023-02-17T17:40:18.314Z,28.25
2023-02-17T17:41:18.351Z,28.24
2023-02-17T17:42:18.392Z,28.23
2023-02-17T17:43:18.423Z,28.22
2023-02-17T17:44:18.461Z,28.24
2023-02-17T17:45:18.494Z,28.25
2023-02-17T17:46:18.595Z,28.25
2023-02-17T17:47:29.520Z,28.24
2023-02-17T17:48:19.601Z,28.25
2023-02-17T17:49:18.588Z,28.24
2023-02-17T17:50:18.616Z,28.27
2023-02-17T17:51:18.608Z,28.25
2023-02-17T17:52:18.639Z,28.25
2023-02-17T17:53:18.627Z,28.27
2023-02-17T17:54:18.649Z,28.27
2023-02-17T17:55:18.667Z,28.27
2023-02-17T17:56:18.683Z,28.28
2023-02-17T17:57:18.685Z,28.27
2023-02-17T17:58:18.707Z,28.27
2023-02-17T17:59:18.714Z,28.27
2023-02-17T18:00:18.750Z,28.26
2023-02-17T18:01:18.798Z,28.25
2023-02-17T18:02:18.745Z,28.28
2023-02-17T18:03:18.780Z,28.28
2023-02-17T18:04:18.837Z,28.27
2023-02-17T18:05:18.808Z,28.28
2023-02-17T18:06:18.815Z,28.28
2023-02-17T18:07:18.820Z,28.27
2023-02-17T18:08:18.838Z,28.29
2023-02-17T18:09:30.786Z,28.29
2023-02-17T18:10:19.862Z,28.30
2023-02-17T18:11:18.873Z,28.29
2023-02-17T18:12:18.892Z,28.28
2023-02-17T18:13:18.896Z,28.31
2023-02-17T18:14:18.920Z,28.29
2023-02-17T18:15:18.940Z,28.31
2023-02-17T18:16:19.029Z,28.32
2023-02-17T18:17:18.968Z,28.29
2023-02-17T18:18:18.983Z,28.31
2023-02-17T18:19:18.981Z,28.33
2023-02-17T18:20:18.993Z,28.34
2023-02-17T18:21:19.004Z,28.33
2023-02-17T18:22:19.011Z,28.31
2023-02-17T18:23:19.015Z,28.30
2023-02-17T18:24:19.043Z,28.34
2023-02-17T18:25:19.060Z,28.31
2023-02-17T18:26:19.078Z,28.31
2023-02-17T18:27:19.063Z,28.35
2023-02-17T18:28:19.086Z,28.33
2023-02-17T18:29:19.090Z,28.36
2023-02-17T18:30:19.174Z,28.34
2023-02-17T18:31:19.200Z,28.36
2023-02-17T18:32:19.144Z,28.35
2023-02-17T18:33:19.184Z,28.35
2023-02-17T18:34:19.230Z,28.35
2023-02-17T18:35:19.302Z,28.38
2023-02-17T18:36:19.308Z,28.37
2023-02-17T18:37:19.345Z,28.37
2023-02-17T18:38:19.388Z,28.36
2023-02-17T18:39:19.469Z,28.35
2023-02-17T18:40:19.481Z,28.38
2023-02-17T18:41:19.527Z,28.38
2023-02-17T18:42:19.557Z,28.38
2023-02-17T18:43:19.585Z,28.35
2023-02-17T18:44:19.629Z,28.36
2023-02-17T18:45:19.668Z,28.37
2023-02-17T18:46:19.746Z,28.38
2023-02-17T18:47:19.744Z,28.38
2023-02-17T18:48:19.782Z,28.34
2023-02-17T18:49:19.834Z,28.39
2023-02-17T18:50:19.864Z,28.41
2023-02-17T18:51:19.914Z,28.39
2023-02-17T18:52:19.956Z,28.37
2023-02-17T18:53:19.990Z,28.37
2023-02-17T18:54:20.040Z,28.39
2023-02-17T18:55:20.090Z,28.42
2023-02-17T18:56:20.134Z,28.38
2023-02-17T18:57:20.168Z,28.43
2023-02-17T18:58:20.197Z,28.41
2023-02-17T18:59:20.238Z,28.40
2023-02-17T19:00:20.299Z,28.43
2023-02-17T19:01:20.367Z,28.43
2023-02-17T19:02:20.453Z,28.41
2023-02-17T19:03:20.412Z,28.45
2023-02-17T19:04:20.475Z,28.46
2023-02-17T19:05:20.518Z,28.50
2023-02-17T19:06:20.576Z,28.48
2023-02-17T19:07:20.587Z,28.44
2023-02-17T19:08:20.650Z,28.47
2023-02-17T19:09:20.682Z,28.47
2023-02-17T19:10:20.721Z,28.47
2023-02-17T21:12:27.858Z,28.79
2023-02-17T21:13:29.639Z,28.80
2023-02-17T21:14:27.983Z,28.85
2023-02-17T21:15:28.052Z,28.84
2023-02-17T21:16:28.182Z,28.79
2023-02-17T21:17:28.191Z,28.79
2023-02-17T21:18:28.240Z,28.79
2023-02-17T21:19:28.309Z,28.84
2023-02-17T21:20:28.366Z,28.82
2023-02-17T21:21:28.434Z,28.81
2023-02-17T21:22:28.492Z,28.81
2023-02-17T21:23:28.558Z,28.81
2023-02-17T21:24:28.625Z,28.82
2023-02-17T21:25:28.680Z,28.85
2023-02-17T21:26:28.756Z,28.83
2023-02-17T21:27:28.817Z,28.81
2023-02-17T21:28:28.886Z,28.82
2023-02-17T21:29:28.952Z,28.83
2023-02-17T21:30:29.071Z,28.82
2023-02-17T21:31:29.190Z,28.82
2023-02-17T21:32:29.147Z,28.82
2023-02-17T21:33:29.211Z,28.83
2023-02-17T21:34:29.267Z,28.84
2023-02-17T21:35:29.333Z,28.82
2023-02-17T21:36:29.655Z,28.81
2023-02-17T21:37:29.464Z,28.83
2023-02-17T21:38:29.522Z,28.82
2023-02-17T21:39:29.608Z,28.82
2023-02-17T21:40:29.659Z,28.85
2023-02-17T21:41:29.730Z,28.86
2023-02-17T21:42:29.777Z,28.85
2023-02-17T21:43:29.853Z,28.85
2023-02-17T23:43:37.795Z,28.74
2023-02-17T23:44:37.848Z,28.74
2023-02-17T23:45:37.887Z,28.71
2023-02-17T23:46:37.924Z,28.72
2023-02-17T23:47:37.957Z,28.70
2023-02-17T23:48:37.995Z,28.69
2023-02-17T23:49:38.034Z,28.69
2023-02-17T23:50:38.076Z,28.67
2023-02-17T23:51:38.122Z,28.66
2023-02-17T23:52:38.196Z,28.63
2023-02-17T23:53:38.146Z,28.60
2023-02-17T23:54:38.177Z,28.61
2023-02-17T23:55:38.208Z,28.59
2023-02-17T23:56:38.229Z,28.57
2023-02-17T23:57:38.255Z,28.55
2023-02-17T23:58:38.273Z,28.56
2023-02-17T23:59:38.305Z,28.53
